M I D A S
Marine Information and Data Acquisition System
Tripno 528 of the Zeeleeuw from 2003-07-01 06:19:53 to 2003-07-01 10:12:15
Back to CruiseResearch ActivitiesStationsMapUnderway DataData graphs

EquipmentUnitsComment
TimeDGPSUTC
LatitudeDGPSDM.mWGS84
LongitudeDGPSDM.mWGS84
HeadingGyrodeg 
SOGDGPSknotsSpeed over ground
COGDGPSdegCourse over ground
DepthEcho soundermeters200 kHz
Missing or incorrect values are displayed as -999
Navigation data collected by the RV Zeeleeuw from 2003-07-01 06:19:53 to 2003-07-01 10:12:15
                                                                                    Next 1000 lines
Time Latitude Longitude Heading SOG COG Depth
2003-07-01 06:20:01 51°13.6 2°56.1 124.7   281 6.5
2003-07-01 06:20:07 51°13.6 2°56.1 124.5   235 6.5
2003-07-01 06:20:11 51°13.6 2°56.1 124.3   216 6.4
2003-07-01 06:20:17 51°13.6 2°56.1 124   203 6.5
2003-07-01 06:20:21 51°13.6 2°56.1 123.6   211 6.5
2003-07-01 06:20:27 51°13.6 2°56.1 123.3   204 6.5
2003-07-01 06:20:33 51°13.6 2°56.1 123.1   203 6.5
2003-07-01 06:20:37 51°13.6 2°56.1 122.7   203 6.4
2003-07-01 06:20:41 51°13.6 2°56.1 122.4   205 6.5
2003-07-01 06:20:47 51°13.6 2°56.1 122   184 6.4
2003-07-01 06:20:53 51°13.6 2°56.1 121.8   197 6.5
2003-07-01 06:20:57 51°13.6 2°56.1 121.4   181 6.5
2003-07-01 06:21:01 51°13.6 2°56.1 121.2   201 6.5
2003-07-01 06:21:07 51°13.6 2°56.1 120.8   189 6.5
2003-07-01 06:21:13 51°13.6 2°56.1 120.3   185 6.6
2003-07-01 06:21:17 51°13.6 2°56.1 120   188 6.6
2003-07-01 06:21:21 51°13.6 2°56.1 119.6   191 6.5
2003-07-01 06:21:27 51°13.6 2°56.1 119.1   154 6.5
2003-07-01 06:21:31 51°13.6 2°56.1 118.7   193 6.5
2003-07-01 06:21:37 51°13.6 2°56.1 118.2   182 6.5
2003-07-01 06:21:41 51°13.6 2°56.1 117.7   190 6.5
2003-07-01 06:21:47 51°13.6 2°56.1 117.3   189 6.5
2003-07-01 06:21:53 51°13.6 2°56.1 116.8   190 6.5
2003-07-01 06:21:57 51°13.6 2°56.1 116.4   193 6.4
2003-07-01 06:22:01 51°13.6 2°56.1 116   180 6.5
2003-07-01 06:22:07 51°13.6 2°56.1 115.5 0.1 188 6.4
2003-07-01 06:22:11 51°13.6 2°56.1 115.2   170 6.5
2003-07-01 06:22:17 51°13.6 2°56.1 114.7   186 6.4
2003-07-01 06:22:21 51°13.6 2°56.1 114.4   195 6.5
2003-07-01 06:22:27 51°13.6 2°56.1 113.9   163 6.4
2003-07-01 06:22:31 51°13.6 2°56.1 113.6   236 6.5
2003-07-01 06:22:37 51°13.6 2°56.1 113.3   310 6.4
2003-07-01 06:22:41 51°13.6 2°56.1 113.3 0.1 342 6.5
2003-07-01 06:22:47 51°13.6 2°56.1 113.8 0.2 307 6.5
2003-07-01 06:22:53 51°13.6 2°56.1 114.1 0.6 301 6.4
2003-07-01 06:22:57 51°13.6 2°56.1 114.2 1 298 6.5
2003-07-01 06:23:01 51°13.6 2°56.1 114.2 1.6 296 6.6
2003-07-01 06:23:07 51°13.6 2°56.09 114.2 1.9 295 6.9
2003-07-01 06:23:13 51°13.61 2°56.09 114.2 2.2 295 -999
2003-07-01 06:23:19 51°13.61 2°56.08 114.2 2.5 295 -999
2003-07-01 06:23:23 51°13.61 2°56.08 114.2 2.6 294 -999
2003-07-01 06:23:29 51°13.61 2°56.07 114.4 2.9 295 -999
2003-07-01 06:23:35 51°13.61 2°56.06 114.6 3.1 294 -999
2003-07-01 06:23:39 51°13.61 2°56.06 114.6 3.2 295 -999
2003-07-01 06:23:45 51°13.62 2°56.05 114.4 3.4 294 -999
2003-07-01 06:23:49 51°13.62 2°56.04 113.9 3.6 294 -999
2003-07-01 06:23:55 51°13.62 2°56.03 113.5 3.7 293 -999
2003-07-01 06:24:01 51°13.62 2°56.02 113.2 4 292 -999
2003-07-01 06:24:05 51°13.62 2°56.02 112.9 4.2 292 -999
2003-07-01 06:24:11 51°13.63 2°56.01 112.8 4.3 292 -999
2003-07-01 06:24:17 51°13.63 2°55.99 112.6 4.5 290 -999
2003-07-01 06:24:21 51°13.63 2°55.99 112.5 4.6 291 -999
2003-07-01 06:24:27 51°13.63 2°55.98 112.8 4.5 290 -999
2003-07-01 06:24:31 51°13.64 2°55.97 113.2 4.4 291 -999
2003-07-01 06:24:37 51°13.64 2°55.96 113.6 4.3 290 -999
2003-07-01 06:24:41 51°13.64 2°55.95 114.1 4.2 292 -999
2003-07-01 06:24:47 51°13.64 2°55.94 114.9 4.3 291 -999
2003-07-01 06:24:51 51°13.64 2°55.93 115.3 4.3 293 -999
2003-07-01 06:24:57 51°13.65 2°55.92 115.5 4.4 292 -999
2003-07-01 06:25:01 51°13.65 2°55.91 115.8 4.4 293 -999
2003-07-01 06:25:07 51°13.65 2°55.9 115.9 4.6 293 -999
2003-07-01 06:25:11 51°13.65 2°55.9 115.8 4.6 294 -999
2003-07-01 06:25:17 51°13.66 2°55.88 115.6 4.7 294 -999
2003-07-01 06:25:21 51°13.66 2°55.88 115.1 4.8 294 -999
2003-07-01 06:25:27 51°13.66 2°55.87 114.3 4.8 294 -999
2003-07-01 06:25:31 51°13.66 2°55.86 113.2 4.6 293 -999
2003-07-01 06:25:37 51°13.67 2°55.85 112 4.4 292 -999
2003-07-01 06:25:41 51°13.67 2°55.84 110.8 4.3 292 -999
2003-07-01 06:25:47 51°13.67 2°55.83 109.3 4.1 291 9.2
2003-07-01 06:25:51 51°13.67 2°55.82 107.6 3.9 290 -999
2003-07-01 06:25:57 51°13.68 2°55.81 106 3.8 289 8.9
2003-07-01 06:26:01 51°13.68 2°55.81 104.3 3.7 288 8.9
2003-07-01 06:26:05 51°13.68 2°55.8 101.9 3.6 287 8.8
2003-07-01 06:26:09 51°13.68 2°55.8 99.5 3.5 285 9.1
2003-07-01 06:26:13 51°13.68 2°55.79 97.8 3.3 283 9.6
2003-07-01 06:26:19 51°13.68 2°55.78 95.5 3.2 282 10.3
2003-07-01 06:26:23 51°13.68 2°55.78 94.3 3 283 10.9
2003-07-01 06:26:27 51°13.68 2°55.77 93.2 2.6 284 11.1
2003-07-01 06:26:33 51°13.68 2°55.77 90.7 1.7 287 11.3
2003-07-01 06:26:37 51°13.68 2°55.77 86.3 1.5 288 11.4
2003-07-01 06:26:41 51°13.68 2°55.76 82.4 1.4 287 11.5
2003-07-01 06:26:47 51°13.68 2°55.76 78.9 1.2 286 11.6
2003-07-01 06:26:53 51°13.68 2°55.76 75.9 1 286 11.8
2003-07-01 06:26:57 51°13.68 2°55.76 73.2 0.9 286 12.1
2003-07-01 06:27:01 51°13.69 2°55.76 70.9 0.8 290 12.1
2003-07-01 06:27:07 51°13.69 2°55.75 68.5 0.6 294 12
2003-07-01 06:27:13 51°13.69 2°55.75 66.2 0.5 310 12.1
2003-07-01 06:27:17 51°13.69 2°55.75 63.6 0.4 337 12.3
2003-07-01 06:27:21 51°13.69 2°55.75 60 0.5 8 12.5
2003-07-01 06:27:27 51°13.69 2°55.75 55.8 0.8 24 12.6
2003-07-01 06:27:33 51°13.69 2°55.75 51.1 1.1 27 12.7
2003-07-01 06:27:37 51°13.69 2°55.76 46.3 1.3 27 12.9
2003-07-01 06:27:41 51°13.69 2°55.76 41.3 1.6 22 12.9
2003-07-01 06:27:47 51°13.7 2°55.76 36 1.7 19 12.8
2003-07-01 06:27:53 51°13.7 2°55.76 31.5 1.9 14 12.8
2003-07-01 06:27:57 51°13.7 2°55.76 24.3 2.1 8 12.8
2003-07-01 06:28:01 51°13.7 2°55.76 18.1 2.2 5 12.5
2003-07-01 06:28:07 51°13.71 2°55.76 11.7 2.5 357 11.8
2003-07-01 06:28:13 51°13.71 2°55.76 5 2.7 351 11.8
2003-07-01 06:28:17 51°13.72 2°55.76 357.9 2.9 347 11.6
2003-07-01 06:28:21 51°13.72 2°55.76 350.8 3 342 10.9
2003-07-01 06:28:27 51°13.72 2°55.75 344 3.2 335 10.3
2003-07-01 06:28:33 51°13.73 2°55.75 337.5 3.4 328 9.8
2003-07-01 06:28:37 51°13.73 2°55.74 332.4 3.6 326 9.9
2003-07-01 06:28:41 51°13.74 2°55.74 328.7 3.9 323 9.9
2003-07-01 06:28:47 51°13.74 2°55.73 327.1 4.4 321 9.9
2003-07-01 06:28:53 51°13.75 2°55.72 326.6 4.9 319 9.9
2003-07-01 06:28:57 51°13.75 2°55.72 326.6 5.2 319 9.9
2003-07-01 06:29:01 51°13.76 2°55.71 327.5 5.4 320 9.9
2003-07-01 06:29:07 51°13.76 2°55.7 328.3 5.8 322 10
2003-07-01 06:29:13 51°13.77 2°55.69 329 6.1 323 10
2003-07-01 06:29:17 51°13.78 2°55.69 329.5 6.2 323 10
2003-07-01 06:29:21 51°13.78 2°55.68 330.2 6.4 324 9.9
2003-07-01 06:29:27 51°13.79 2°55.67 330.9 6.6 326 9.9
2003-07-01 06:29:31 51°13.8 2°55.66 331.8 6.9 328 10
2003-07-01 06:29:37 51°13.81 2°55.65 333.7 7 330 10.1
2003-07-01 06:29:41 51°13.82 2°55.65 335 7.1 331 9.9
2003-07-01 06:29:47 51°13.83 2°55.64 336.7 7.2 332 9.8
2003-07-01 06:29:53 51°13.84 2°55.63 337.3 7.4 333 9.8
2003-07-01 06:29:57 51°13.84 2°55.62 337.7 7.5 334 9.7
2003-07-01 06:30:01 51°13.85 2°55.62 338.6 7.6 334 9.4
2003-07-01 06:30:07 51°13.86 2°55.61 339.4 7.7 335 9.5
2003-07-01 06:30:13 51°13.88 2°55.6 339.6 7.8 335 9.9
2003-07-01 06:30:17 51°13.88 2°55.59 339.4 7.8 335 10
2003-07-01 06:30:21 51°13.89 2°55.59 339.3 7.9 335 10
2003-07-01 06:30:27 51°13.9 2°55.58 339.9 8 335 10.1
2003-07-01 06:30:33 51°13.92 2°55.57 340.7 8.1 336 10.1
2003-07-01 06:30:37 51°13.92 2°55.56 340.9 8.1 336 10.1
2003-07-01 06:30:41 51°13.93 2°55.56 340.7 8.1 336 10.1
2003-07-01 06:30:47 51°13.94 2°55.55 340.4 8.1 336 10.1
2003-07-01 06:30:51 51°13.95 2°55.54 340.6 8.2 335 10.1
2003-07-01 06:30:57 51°13.97 2°55.53 341.1 8.2 337 10.1
2003-07-01 06:31:01 51°13.97 2°55.53 341.1 8.2 337 10.1
2003-07-01 06:31:07 51°13.99 2°55.52 340.9 8.2 337 10
2003-07-01 06:31:11 51°13.99 2°55.51 340.9 8.2 336 10.1
2003-07-01 06:31:17 51°14.01 2°55.5 341 8.2 337 10
2003-07-01 06:31:21 51°14.02 2°55.5 340.8 8.2 337 10
2003-07-01 06:31:27 51°14.03 2°55.49 340.7 8.2 336 10
2003-07-01 06:31:33 51°14.04 2°55.48 340.7 8.2 336 10
2003-07-01 06:31:37 51°14.05 2°55.47 340.3 8.2 335 9.9
2003-07-01 06:31:41 51°14.06 2°55.47 339.7 8.2 335 10
2003-07-01 06:31:47 51°14.07 2°55.46 339.7 8.2 335 10
2003-07-01 06:31:51 51°14.08 2°55.45 339.6 8.3 335 10
2003-07-01 06:31:57 51°14.09 2°55.44 339.6 8.2 335 10
2003-07-01 06:32:01 51°14.1 2°55.44 339.5 8.2 335 10.1
2003-07-01 06:32:07 51°14.11 2°55.43 338.9 8.2 334 10
2003-07-01 06:32:13 51°14.12 2°55.42 338 8.2 333 10.1
2003-07-01 06:32:17 51°14.13 2°55.41 337.3 8.2 332 10.1
2003-07-01 06:32:21 51°14.14 2°55.4 336.5 8.2 332 10.1
2003-07-01 06:32:27 51°14.15 2°55.39 335.4 8.2 331 10.2
2003-07-01 06:32:31 51°14.16 2°55.39 333.8 8.2 329 10.1
2003-07-01 06:32:37 51°14.17 2°55.37 332.4 8.2 328 10.2
2003-07-01 06:32:41 51°14.18 2°55.37 331.3 8.2 327 10.3
2003-07-01 06:32:47 51°14.19 2°55.35 330.1 8.2 326 10.2
2003-07-01 06:32:53 51°14.2 2°55.34 328.7 8.4 324 10.1
2003-07-01 06:32:57 51°14.21 2°55.33 326.9 8.6 322 10.1
2003-07-01 06:33:01 51°14.22 2°55.32 325.4 8.8 321 10.1
2003-07-01 06:33:07 51°14.23 2°55.31 324.1 9 319 10.1
2003-07-01 06:33:13 51°14.24 2°55.29 322.5 9.2 317 10.1
2003-07-01 06:33:17 51°14.25 2°55.28 321.1 9.3 316 10
2003-07-01 06:33:21 51°14.25 2°55.27 320.6 9.4 316 10
2003-07-01 06:33:27 51°14.26 2°55.25 319.3 9.5 315 10
2003-07-01 06:33:33 51°14.28 2°55.23 318.6 9.7 313 10
2003-07-01 06:33:37 51°14.28 2°55.22 318.2 9.7 313 10
2003-07-01 06:33:41 51°14.29 2°55.2 317.5 9.8 312 10
2003-07-01 06:33:47 51°14.3 2°55.18 316.4 9.9 311 10
2003-07-01 06:33:53 51°14.31 2°55.16 315.6 9.9 311 10
2003-07-01 06:33:57 51°14.32 2°55.15 315.3 10 310 9.9
2003-07-01 06:34:01 51°14.33 2°55.14 315.5 10 310 9.8
2003-07-01 06:34:07 51°14.34 2°55.12 315.7 10 311 9.1
2003-07-01 06:34:13 51°14.35 2°55.1 315.7 10.1 310 9.2
2003-07-01 06:34:17 51°14.35 2°55.08 315.9 10 311 9.6
2003-07-01 06:34:21 51°14.36 2°55.07 316.6 10 311 9.7
2003-07-01 06:34:27 51°14.37 2°55.05 317.1 10 312 9.5
2003-07-01 06:34:33 51°14.38 2°55.03 317 9.8 311 9.4
2003-07-01 06:34:37 51°14.39 2°55.02 315.3 9.7 310 9.4
2003-07-01 06:34:41 51°14.4 2°55 312.4 9.6 307 9.5
2003-07-01 06:34:47 51°14.41 2°54.98 308.9 9.5 304 9.6
2003-07-01 06:34:53 51°14.41 2°54.96 305.5 9.4 299 9.6
2003-07-01 06:34:57 51°14.42 2°54.95 302.3 9.3 296 9.6
2003-07-01 06:35:01 51°14.42 2°54.93 299.1 9.2 294 9.7
2003-07-01 06:35:07 51°14.43 2°54.91 296.1 9.1 290 9.7
2003-07-01 06:35:13 51°14.43 2°54.89 293.1 9.1 287 9.8
2003-07-01 06:35:17 51°14.43 2°54.87 290.7 9.1 285 9.4
2003-07-01 06:35:21 51°14.44 2°54.86 288.7 9.1 284 9.5
2003-07-01 06:35:27 51°14.44 2°54.83 287 9.1 281 9.6
2003-07-01 06:35:33 51°14.44 2°54.81 285.4 9.1 280 9.5
2003-07-01 06:35:37 51°14.44 2°54.79 284.1 9.1 278 9.7
2003-07-01 06:35:41 51°14.44 2°54.78 282.8 9.1 277 9.6
2003-07-01 06:35:47 51°14.45 2°54.75 281.9 9.1 276 9.5
2003-07-01 06:35:53 51°14.45 2°54.73 280.9 9.2 275 9.5
2003-07-01 06:35:57 51°14.45 2°54.71 279.7 9.2 274 9.3
2003-07-01 06:36:01 51°14.45 2°54.7 278.7 9.2 273 9.5
2003-07-01 06:36:07 51°14.45 2°54.67 277.8 9.2 273 9.3
2003-07-01 06:36:13 51°14.45 2°54.65 277.5 9.2 272 9.3
2003-07-01 06:36:17 51°14.45 2°54.63 277.5 9.3 272 9.3
2003-07-01 06:36:21 51°14.45 2°54.62 277.4 9.2 271 9.6
2003-07-01 06:36:27 51°14.45 2°54.59 275.9 9.1 270 9.5
2003-07-01 06:36:33 51°14.45 2°54.57 273.7 9.1 267 9.5
2003-07-01 06:36:37 51°14.45 2°54.55 271.9 9 267 9.5
2003-07-01 06:36:41 51°14.45 2°54.53 270.7 9 265 9.5
2003-07-01 06:36:47 51°14.45 2°54.51 269.5 8.8 265 9.5
2003-07-01 06:36:53 51°14.44 2°54.49 268.2 8.3 262 9.6
2003-07-01 06:36:57 51°14.44 2°54.48 266.3 7.9 262 9.6
2003-07-01 06:37:01 51°14.44 2°54.46 264.1 7.6 260 9.7
2003-07-01 06:37:07 51°14.44 2°54.44 261.4 7.1 258 9.7
2003-07-01 06:37:13 51°14.44 2°54.43 259 6.7 255 9.8
2003-07-01 06:37:17 51°14.43 2°54.42 257 6.4 255 9.8
2003-07-01 06:37:21 51°14.43 2°54.41 255.5 6.2 254 9.4
2003-07-01 06:37:27 51°14.43 2°54.39 253.9 5.8 252 9.3
2003-07-01 06:37:33 51°14.43 2°54.38 252.3 5.5 250 9
2003-07-01 06:37:37 51°14.42 2°54.37 250.6 5.2 248 8.9
2003-07-01 06:37:41 51°14.42 2°54.36 248.4 4.6 247 8.7
2003-07-01 06:37:47 51°14.42 2°54.35 244.9 3.9 244 8.6
2003-07-01 06:37:53 51°14.42 2°54.35 240.5 3.2 242 8.6
2003-07-01 06:37:57 51°14.42 2°54.34 235.9 2.7 243 8.6
2003-07-01 06:38:01 51°14.41 2°54.34 231.2 2.4 241 8.6
2003-07-01 06:38:07 51°14.41 2°54.34 227.1 2 241 8.6
2003-07-01 06:38:13 51°14.41 2°54.33 224.4 2 244 8.6
2003-07-01 06:38:17 51°14.41 2°54.33 222.2 1.8 235 8.6
2003-07-01 06:38:21 51°14.41 2°54.32 220.2 1.9 241 8.5
2003-07-01 06:38:27 51°14.41 2°54.32 218.8 1.8 237 8.6
2003-07-01 06:38:33 51°14.41 2°54.32 216.8 1.7 238 8.6
2003-07-01 06:38:37 51°14.4 2°54.31 215.1 1.7 237 8.5
2003-07-01 06:38:41 51°14.4 2°54.31 213.6 1.6 236 8.6
2003-07-01 06:38:47 51°14.4 2°54.31 212.4 1.6 237 8.6
2003-07-01 06:38:53 51°14.4 2°54.3 210.6 1.6 235 8.6
2003-07-01 06:38:57 51°14.4 2°54.3 209.4 1.5 235 8.5
2003-07-01 06:39:01 51°14.4 2°54.3 208.3 1.5 235 8.6
2003-07-01 06:39:07 51°14.4 2°54.3 206.6 1.4 235 8.5
2003-07-01 06:39:13 51°14.4 2°54.29 205.2 1.5 238 8.5
2003-07-01 06:39:17 51°14.4 2°54.29 203.8 1.4 232 8.6
2003-07-01 06:39:21 51°14.39 2°54.29 202.1 1.4 234 8.4
2003-07-01 06:39:27 51°14.39 2°54.29 200.4 1.3 230 8.5
2003-07-01 06:39:33 51°14.39 2°54.28 198.4 1.3 234 8.4
2003-07-01 06:39:37 51°14.39 2°54.28 196.3 1.3 232 8.5
2003-07-01 06:39:41 51°14.39 2°54.28 194.4 1.3 232 8.6
2003-07-01 06:39:47 51°14.39 2°54.28 192.7 1.3 230 8.6
2003-07-01 06:39:53 51°14.39 2°54.28 190.8 1.3 232 8.6
2003-07-01 06:39:57 51°14.39 2°54.27 189 1.2 231 8.6
2003-07-01 06:40:01 51°14.39 2°54.27 187 1.2 231 8.6
2003-07-01 06:40:07 51°14.38 2°54.27 185.1 1.1 230 8.5
2003-07-01 06:40:13 51°14.38 2°54.27 183.2 1.1 230 8.5
2003-07-01 06:40:17 51°14.38 2°54.27 181.2 1 229 8.4
2003-07-01 06:40:21 51°14.38 2°54.27 179.2 1.1 232 8.5
2003-07-01 06:40:27 51°14.38 2°54.26 177.7 1 230 8.5
2003-07-01 06:40:33 51°14.38 2°54.26 175.8 1 231 8.5
2003-07-01 06:40:37 51°14.38 2°54.26 173.6 0.9 231 8.4
2003-07-01 06:40:41 51°14.38 2°54.26 171.6 0.8 229 8.5
2003-07-01 06:40:47 51°14.38 2°54.26 169.8 0.9 230 8.4
2003-07-01 06:40:53 51°14.38 2°54.26 167.5 0.9 226 8.5
2003-07-01 06:40:57 51°14.38 2°54.25 166.1 1 228 8.5
2003-07-01 06:41:01 51°14.37 2°54.25 164.7 0.9 221 8.4
2003-07-01 06:41:07 51°14.37 2°54.25 164 1.3 200 8.5
2003-07-01 06:41:13 51°14.37 2°54.25 165.7 1.9 191 8.4
2003-07-01 06:41:17 51°14.37 2°54.25 169 2.3 187 8.4
2003-07-01 06:41:21 51°14.36 2°54.25 174 2.8 189 8.4
2003-07-01 06:41:27 51°14.36 2°54.25 179.7 3.3 192 8.4
2003-07-01 06:41:33 51°14.35 2°54.24 186 3.8 199 8.4
2003-07-01 06:41:37 51°14.35 2°54.24 193.2 4 201 8.3
2003-07-01 06:41:41 51°14.34 2°54.24 200.6 4.3 207 8.4
2003-07-01 06:41:47 51°14.34 2°54.23 208.2 4.6 213 8.3
2003-07-01 06:41:51 51°14.33 2°54.23 215.9 4.9 220 8.3
2003-07-01 06:41:57 51°14.33 2°54.22 222.9 5.2 224 8.4
2003-07-01 06:42:01 51°14.32 2°54.21 229.3 5.4 230 8.3
2003-07-01 06:42:07 51°14.32 2°54.2 235.2 5.7 235 8.3
2003-07-01 06:42:13 51°14.31 2°54.18 240.3 6 238 8.3
2003-07-01 06:42:17 51°14.31 2°54.17 243.9 6.2 241 8.3
2003-07-01 06:42:21 51°14.31 2°54.16 245.6 6.4 241 8.3
2003-07-01 06:42:27 51°14.3 2°54.15 246.7 6.6 243 8.2
2003-07-01 06:42:33 51°14.3 2°54.13 247.8 6.9 244 8.3
2003-07-01 06:42:37 51°14.29 2°54.12 248.7 7.1 245 8.3
2003-07-01 06:42:41 51°14.29 2°54.11 249.5 7.6 245 8.2
2003-07-01 06:42:47 51°14.28 2°54.09 250.5 7.9 246 8.2
2003-07-01 06:42:53 51°14.28 2°54.07 250.8 8.3 246 8.1
2003-07-01 06:42:57 51°14.27 2°54.05 250 8.6 246 8.2
2003-07-01 06:43:01 51°14.27 2°54.04 248.5 8.8 244 8.2
2003-07-01 06:43:07 51°14.26 2°54.02 248 9.2 244 8.1
2003-07-01 06:43:13 51°14.25 2°54 248 9.8 244 8.1
2003-07-01 06:43:17 51°14.25 2°53.98 247.8 10.3 244 8.1
2003-07-01 06:43:21 51°14.24 2°53.96 247.2 10.8 243 8.1
2003-07-01 06:43:27 51°14.24 2°53.94 246 11.2 241 8.1
2003-07-01 06:43:33 51°14.23 2°53.91 245.3 11.6 241 8.1
2003-07-01 06:43:37 51°14.22 2°53.89 244.6 11.8 241 8.2
2003-07-01 06:43:41 51°14.21 2°53.87 244 12 240 8.1
2003-07-01 06:43:47 51°14.2 2°53.84 243.6 12.2 239 8
2003-07-01 06:43:53 51°14.19 2°53.82 243.8 12.4 240 8.1
2003-07-01 06:43:57 51°14.19 2°53.8 243.8 12.5 240 8.1
2003-07-01 06:44:01 51°14.18 2°53.78 243.8 12.6 240 8.1
2003-07-01 06:44:07 51°14.17 2°53.75 243.8 12.7 240 8.1
2003-07-01 06:44:13 51°14.16 2°53.72 243.9 12.8 240 8.1
2003-07-01 06:44:17 51°14.15 2°53.7 244 12.8 240 8.1
2003-07-01 06:44:21 51°14.14 2°53.68 244 12.9 240 8.1
2003-07-01 06:44:27 51°14.13 2°53.65 244 12.9 240 8.1
2003-07-01 06:44:33 51°14.12 2°53.62 244 13 240 8.1
2003-07-01 06:44:37 51°14.11 2°53.6 244 13 240 8.1
2003-07-01 06:44:41 51°14.11 2°53.58 243.8 13.1 239 8.1
2003-07-01 06:44:47 51°14.1 2°53.55 243.8 13 240 8.2
2003-07-01 06:44:53 51°14.09 2°53.52 243.8 13 240 8.1
2003-07-01 06:44:57 51°14.08 2°53.5 243.8 13.1 240 8.3
2003-07-01 06:45:01 51°14.07 2°53.48 243.8 13.1 240 8.2
2003-07-01 06:45:07 51°14.06 2°53.45 243.8 13.1 240 8.2
2003-07-01 06:45:13 51°14.05 2°53.42 243.7 13.1 240 8.2
2003-07-01 06:45:17 51°14.04 2°53.4 243.8 13.1 240 8.3
2003-07-01 06:45:21 51°14.03 2°53.38 243.7 13.1 240 8.2
2003-07-01 06:45:27 51°14.02 2°53.35 243.7 13.2 240 8.3
2003-07-01 06:45:33 51°14.01 2°53.32 243.7 13.1 240 8.3
2003-07-01 06:45:37 51°14.01 2°53.3 243.8 13.1 240 8.4
2003-07-01 06:45:41 51°14 2°53.28 244.3 13.2 242 8.4
2003-07-01 06:45:47 51°13.99 2°53.25 244.1 13.2 240 8.4
2003-07-01 06:45:53 51°13.98 2°53.22 244.1 13.2 240 8.5
2003-07-01 06:45:57 51°13.97 2°53.2 243.9 13.2 240 8.6
2003-07-01 06:46:01 51°13.96 2°53.18 243.9 13.2 241 8.5
2003-07-01 06:46:07 51°13.95 2°53.15 243.9 13.2 240 8.5
2003-07-01 06:46:13 51°13.94 2°53.12 244.1 13.2 240 8.6
2003-07-01 06:46:17 51°13.93 2°53.1 244.1 13.3 239 8.7
2003-07-01 06:46:21 51°13.93 2°53.08 244.1 13.2 241 8.7
2003-07-01 06:46:27 51°13.91 2°53.05 244 13.2 240 8.7
2003-07-01 06:46:33 51°13.9 2°53.02 244.1 13.2 241 8.8
2003-07-01 06:46:37 51°13.9 2°53 244 13.2 240 8.8
2003-07-01 06:46:41 51°13.89 2°52.98 244.2 13.2 241 8.8
2003-07-01 06:46:47 51°13.88 2°52.95 244.2 13.2 240 8.8
2003-07-01 06:46:51 51°13.87 2°52.93 244.4 13.2 241 8.8
2003-07-01 06:46:57 51°13.86 2°52.9 244.5 13.2 240 8.9
2003-07-01 06:47:01 51°13.85 2°52.88 244.7 13.2 241 8.9
2003-07-01 06:47:07 51°13.84 2°52.84 244.7 13.2 241 8.9
2003-07-01 06:47:13 51°13.83 2°52.81 244.5 13.2 241 8.9
2003-07-01 06:47:17 51°13.82 2°52.79 243.9 13.2 240 8.9
2003-07-01 06:47:21 51°13.82 2°52.77 243.9 13.2 240 8.9
2003-07-01 06:47:27 51°13.81 2°52.74 243.8 13.2 240 8.9
2003-07-01 06:47:33 51°13.79 2°52.71 243.6 13.2 240 9
2003-07-01 06:47:37 51°13.79 2°52.69 243.7 13.2 240 9
2003-07-01 06:47:41 51°13.78 2°52.67 243.8 13.2 240 9
2003-07-01 06:47:47 51°13.77 2°52.64 243.9 13.2 240 9
2003-07-01 06:47:53 51°13.76 2°52.61 244.3 13.2 241 9.1
2003-07-01 06:47:57 51°13.75 2°52.59 244.1 13.2 240 9
2003-07-01 06:48:01 51°13.74 2°52.57 244.5 13.2 241 9
2003-07-01 06:48:07 51°13.73 2°52.54 244.3 13.2 240 8.9
2003-07-01 06:48:13 51°13.72 2°52.51 244.1 13.2 241 9
2003-07-01 06:48:17 51°13.72 2°52.49 244.1 13.2 241 9
2003-07-01 06:48:21 51°13.71 2°52.47 244.1 13.2 240 9.1
2003-07-01 06:48:27 51°13.7 2°52.44 244.4 13.2 241 9.1
2003-07-01 06:48:33 51°13.69 2°52.41 244.3 13.2 241 9.1
2003-07-01 06:48:37 51°13.68 2°52.39 244.7 13.1 241 9.1
2003-07-01 06:48:41 51°13.67 2°52.37 244.5 13.1 240 9.2
2003-07-01 06:48:47 51°13.66 2°52.34 244.7 13.2 241 9.2
2003-07-01 06:48:53 51°13.65 2°52.31 244.7 13.1 240 9.3
2003-07-01 06:48:57 51°13.64 2°52.29 244.5 13.1 241 9.2
2003-07-01 06:49:01 51°13.64 2°52.27 244.2 13.1 240 9.2
2003-07-01 06:49:07 51°13.63 2°52.24 244.1 13.1 241 9.3
2003-07-01 06:49:13 51°13.62 2°52.21 244.1 13.1 240 9.3
2003-07-01 06:49:17 51°13.61 2°52.19 244 13.1 240 9.3
2003-07-01 06:49:21 51°13.6 2°52.17 244.2 13.1 241 9.3
2003-07-01 06:49:27 51°13.59 2°52.14 244.4 13.1 241 9.3
2003-07-01 06:49:33 51°13.58 2°52.11 244.5 13.1 241 9.3
2003-07-01 06:49:37 51°13.57 2°52.09 244.5 13.1 241 9.3
2003-07-01 06:49:41 51°13.57 2°52.06 244.5 13.2 241 9.2
2003-07-01 06:49:47 51°13.56 2°52.03 244.3 13.2 241 9.3
2003-07-01 06:49:53 51°13.54 2°52 244.1 13.1 240 9.3
2003-07-01 06:49:57 51°13.54 2°51.98 244.1 13.1 241 9.4
2003-07-01 06:50:01 51°13.53 2°51.96 243.8 13.2 241 9.4
2003-07-01 06:50:07 51°13.52 2°51.93 244 13.2 241 9.4
2003-07-01 06:50:13 51°13.51 2°51.9 244 13.2 240 9.3
2003-07-01 06:50:17 51°13.5 2°51.88 244 13.2 241 9.4
2003-07-01 06:50:21 51°13.49 2°51.86 243.8 13.2 240 9.4
2003-07-01 06:50:27 51°13.48 2°51.83 243.8 13.2 241 9.4
2003-07-01 06:50:33 51°13.47 2°51.8 243.8 13.2 240 9.3
2003-07-01 06:50:37 51°13.47 2°51.78 244 13.2 241 9.4
2003-07-01 06:50:41 51°13.46 2°51.76 244.1 13.2 241 9.4
2003-07-01 06:50:47 51°13.45 2°51.73 244.3 13.2 241 9.3
2003-07-01 06:50:53 51°13.44 2°51.7 244.1 13.2 241 9.4
2003-07-01 06:50:57 51°13.43 2°51.68 244.3 13.2 241 9.3
2003-07-01 06:51:01 51°13.42 2°51.66 244.4 13.2 241 9.3
2003-07-01 06:51:07 51°13.41 2°51.63 244.6 13.1 241 9.3
2003-07-01 06:51:13 51°13.4 2°51.6 244.5 13.2 241 9.3
2003-07-01 06:51:17 51°13.39 2°51.58 244.5 13.1 241 9.3
2003-07-01 06:51:21 51°13.39 2°51.56 244.1 13.1 241 9.3
2003-07-01 06:51:27 51°13.38 2°51.53 244.4 13.1 241 9.3
2003-07-01 06:51:33 51°13.37 2°51.5 243.9 13.2 240 9.3
2003-07-01 06:51:37 51°13.36 2°51.48 244.1 13.2 241 9.3
2003-07-01 06:51:41 51°13.35 2°51.46 244.2 13.1 241 9.3
2003-07-01 06:51:47 51°13.34 2°51.43 244.5 13.1 241 9.3
2003-07-01 06:51:53 51°13.33 2°51.4 244.4 13.1 240 9.4
2003-07-01 06:51:57 51°13.32 2°51.38 244.4 13.1 241 9.3
2003-07-01 06:52:01 51°13.32 2°51.36 244 13.1 240 9.3
2003-07-01 06:52:07 51°13.31 2°51.32 244.2 13.1 241 9.3
2003-07-01 06:52:13 51°13.29 2°51.29 244 13.1 241 9.3
2003-07-01 06:52:17 51°13.29 2°51.27 244.3 13.1 241 9.4
2003-07-01 06:52:21 51°13.28 2°51.25 244.5 13.2 241 9.4
2003-07-01 06:52:27 51°13.27 2°51.22 244.6 13.1 242 9.4
2003-07-01 06:52:33 51°13.26 2°51.19 244.2 13.2 241 9.4
2003-07-01 06:52:37 51°13.25 2°51.17 244.4 13.2 241 9.5
2003-07-01 06:52:41 51°13.25 2°51.15 244.4 13.1 241 9.4
2003-07-01 06:52:47 51°13.23 2°51.12 244.1 13.2 241 9.5
2003-07-01 06:52:53 51°13.22 2°51.09 244.4 13.2 241 9.4
2003-07-01 06:52:57 51°13.22 2°51.07 244.4 13.2 241 9.5
2003-07-01 06:53:01 51°13.21 2°51.05 244.5 13.2 241 9.5
2003-07-01 06:53:07 51°13.2 2°51.02 244.4 13.2 241 9.4
2003-07-01 06:53:11 51°13.19 2°51 244.1 13.1 241 9.5
2003-07-01 06:53:17 51°13.18 2°50.97 244 13.2 240 9.4
2003-07-01 06:53:21 51°13.17 2°50.95 243.8 13.2 241 9.5
2003-07-01 06:53:27 51°13.16 2°50.92 244 13.2 240 9.5
2003-07-01 06:53:33 51°13.15 2°50.89 244.5 13.2 241 9.5
2003-07-01 06:53:37 51°13.14 2°50.87 244.3 13.2 241 9.6
2003-07-01 06:53:41 51°13.14 2°50.85 244.5 13.2 241 9.6
2003-07-01 06:53:47 51°13.13 2°50.82 244.5 13.1 241 9.6
2003-07-01 06:53:51 51°13.12 2°50.8 244.5 13.2 242 9.6
2003-07-01 06:53:57 51°13.11 2°50.77 244.6 13.2 241 9.6
2003-07-01 06:54:01 51°13.1 2°50.75 244.6 13.2 241 9.6
2003-07-01 06:54:07 51°13.09 2°50.71 244.9 13.2 241 9.6
2003-07-01 06:54:13 51°13.08 2°50.68 244.8 13.2 241 9.6
2003-07-01 06:54:17 51°13.08 2°50.66 245.3 13.2 242 9.6
2003-07-01 06:54:21 51°13.07 2°50.64 244.9 13.2 241 9.6
2003-07-01 06:54:27 51°13.06 2°50.61 244.9 13.2 242 9.7
2003-07-01 06:54:33 51°13.05 2°50.58 244.7 13.1 241 9.7
2003-07-01 06:54:37 51°13.04 2°50.56 244.6 13.2 242 9.7
2003-07-01 06:54:41 51°13.03 2°50.54 244.6 13.2 241 9.7
2003-07-01 06:54:47 51°13.02 2°50.51 244.5 13.2 241 9.7
2003-07-01 06:54:53 51°13.01 2°50.48 244.1 13.1 240 9.7
2003-07-01 06:54:57 51°13 2°50.46 243.9 13.2 241 9.7
2003-07-01 06:55:01 51°13 2°50.44 244 13.1 241 9.8
2003-07-01 06:55:07 51°12.99 2°50.41 244 13.2 241 9.7
2003-07-01 06:55:13 51°12.98 2°50.38 244.3 13.2 241 9.7
2003-07-01 06:55:17 51°12.97 2°50.36 244 13.2 240 9.7
2003-07-01 06:55:21 51°12.96 2°50.34 243.8 13.2 240 9.8
2003-07-01 06:55:27 51°12.95 2°50.31 243.8 13.2 240 9.7
2003-07-01 06:55:33 51°12.94 2°50.28 244 13.2 241 9.8
2003-07-01 06:55:37 51°12.93 2°50.26 244.4 13.2 241 9.8
2003-07-01 06:55:41 51°12.92 2°50.24 244.8 13.2 241 9.8
2003-07-01 06:55:47 51°12.91 2°50.21 245 13.2 241 9.8
2003-07-01 06:55:53 51°12.9 2°50.17 245.1 13.2 241 9.8
2003-07-01 06:55:57 51°12.9 2°50.15 244.8 13.2 241 9.8
2003-07-01 06:56:01 51°12.89 2°50.13 244.5 13.2 241 9.8
2003-07-01 06:56:07 51°12.88 2°50.1 244.6 13.2 241 9.8
2003-07-01 06:56:13 51°12.87 2°50.07 244.4 13.2 241 9.8
2003-07-01 06:56:17 51°12.86 2°50.05 244.3 13.2 241 9.8
2003-07-01 06:56:21 51°12.85 2°50.03 244.1 13.2 241 9.8
2003-07-01 06:56:27 51°12.84 2°50 243.9 13.2 240 9.8
2003-07-01 06:56:33 51°12.83 2°49.97 243.8 13.2 240 9.9
2003-07-01 06:56:37 51°12.82 2°49.95 243.8 13.2 241 9.8
2003-07-01 06:56:41 51°12.82 2°49.93 243.9 13.2 240 9.9
2003-07-01 06:56:47 51°12.81 2°49.9 243.9 13.2 241 9.9
2003-07-01 06:56:53 51°12.8 2°49.87 243.8 13.2 241 9.9
2003-07-01 06:56:57 51°12.79 2°49.85 243.9 13.2 241 9.9
2003-07-01 06:57:01 51°12.78 2°49.83 244.4 13.1 241 9.9
2003-07-01 06:57:07 51°12.77 2°49.8 244.1 13.2 241 9.9
2003-07-01 06:57:13 51°12.76 2°49.77 244.4 13.2 241 9.9
2003-07-01 06:57:17 51°12.75 2°49.75 244.4 13.2 241 10
2003-07-01 06:57:21 51°12.75 2°49.73 244.6 13.2 242 9.9
2003-07-01 06:57:27 51°12.74 2°49.7 244.5 13.2 241 9.9
2003-07-01 06:57:33 51°12.73 2°49.67 244.6 13.2 241 10
2003-07-01 06:57:37 51°12.72 2°49.65 244.2 13.2 240 9.9
2003-07-01 06:57:41 51°12.71 2°49.63 244.1 13.2 241 10
2003-07-01 06:57:47 51°12.7 2°49.6 244.4 13.2 241 10
2003-07-01 06:57:53 51°12.69 2°49.56 244.7 13.2 242 10
2003-07-01 06:57:57 51°12.68 2°49.54 245.3 13.2 242 10
2003-07-01 06:58:01 51°12.68 2°49.52 246.6 13.2 243 10.1
2003-07-01 06:58:07 51°12.67 2°49.49 248.4 13.2 245 10
2003-07-01 06:58:13 51°12.66 2°49.46 250.4 13.2 248 10
2003-07-01 06:58:17 51°12.65 2°49.44 252.7 13.2 249 10.1
2003-07-01 06:58:21 51°12.65 2°49.42 255.3 13.2 251 10.1
2003-07-01 06:58:27 51°12.64 2°49.38 257.7 13.1 254 10.1
2003-07-01 06:58:33 51°12.64 2°49.35 260.3 13.1 256 10.2
2003-07-01 06:58:37 51°12.64 2°49.33 262.6 13.1 258 10.2
2003-07-01 06:58:41 51°12.63 2°49.3 263.4 13.1 258 10.3
2003-07-01 06:58:47 51°12.63 2°49.27 263.5 13.1 258 10.3
2003-07-01 06:58:53 51°12.62 2°49.23 263.4 13.2 258 10.4
2003-07-01 06:58:57 51°12.62 2°49.21 263.6 13.2 259 10.4
2003-07-01 06:59:01 51°12.62 2°49.19 263.4 13.2 258 10.5
2003-07-01 06:59:07 51°12.61 2°49.15 263.8 13.2 259 10.5
2003-07-01 06:59:13 51°12.61 2°49.12 263.8 13.2 259 10.5
2003-07-01 06:59:17 51°12.61 2°49.1 263.9 13.2 259 10.7
2003-07-01 06:59:21 51°12.6 2°49.07 264.1 13.2 259 10.6
2003-07-01 06:59:27 51°12.6 2°49.04 263.6 13.2 258 10.6
2003-07-01 06:59:33 51°12.59 2°49.01 262.8 13.3 257 10.7
2003-07-01 06:59:37 51°12.59 2°48.98 262 13.3 257 10.5
2003-07-01 06:59:41 51°12.59 2°48.96 261.8 13.3 257 10.7
2003-07-01 06:59:47 51°12.58 2°48.93 262.4 13.3 257 10.6
2003-07-01 06:59:53 51°12.58 2°48.89 262.7 13.3 257 10.6
2003-07-01 06:59:57 51°12.57 2°48.87 262 13.3 256 10.7
2003-07-01 07:00:01 51°12.57 2°48.85 261.1 13.3 256 10.7
2003-07-01 07:00:07 51°12.56 2°48.81 260.1 13.3 255 10.8
2003-07-01 07:00:13 51°12.56 2°48.78 259.1 13.3 254 10.8
2003-07-01 07:00:17 51°12.55 2°48.76 257.9 13.3 253 10.9
2003-07-01 07:00:21 51°12.55 2°48.73 254.9 13.2 251 10.8
2003-07-01 07:00:27 51°12.54 2°48.7 251.8 13.2 247 10.8
2003-07-01 07:00:33 51°12.53 2°48.67 249.8 13.2 246 10.9
2003-07-01 07:00:37 51°12.53 2°48.65 248.2 13.2 245 11
2003-07-01 07:00:41 51°12.52 2°48.63 247.1 13.2 244 11
2003-07-01 07:00:47 51°12.51 2°48.6 246.7 13.2 243 11
2003-07-01 07:00:53 51°12.5 2°48.56 245.7 13.2 242 11
2003-07-01 07:00:57 51°12.49 2°48.54 245.3 13.3 242 11
2003-07-01 07:01:01 51°12.48 2°48.52 245.1 13.3 242 11.1
2003-07-01 07:01:07 51°12.47 2°48.49 245.3 13.3 242 11
2003-07-01 07:01:13 51°12.46 2°48.46 245.2 13.3 242 11.2
2003-07-01 07:01:17 51°12.45 2°48.44 243.6 13.2 240 11.1
2003-07-01 07:01:21 51°12.45 2°48.42 242.5 13.3 240 11
2003-07-01 07:01:27 51°12.44 2°48.39 241.9 13.2 239 10.5
2003-07-01 07:01:33 51°12.42 2°48.36 240.9 13.2 238 11
2003-07-01 07:01:37 51°12.42 2°48.34 240.6 13.3 238 11
2003-07-01 07:01:41 51°12.41 2°48.32 240.7 13.3 238 10.9
2003-07-01 07:01:47 51°12.4 2°48.29 240.7 13.3 238 11
2003-07-01 07:01:53 51°12.39 2°48.26 240.6 13.7 238 11
2003-07-01 07:01:57 51°12.38 2°48.24 240.6 13.9 238 11
2003-07-01 07:02:01 51°12.37 2°48.22 240.2 14 237 10.9
2003-07-01 07:02:07 51°12.36 2°48.19 240.5 14.3 238 10.9
2003-07-01 07:02:13 51°12.34 2°48.15 240.5 14.4 238 10.9
2003-07-01 07:02:17 51°12.34 2°48.13 240.2 14.5 238 10.9
2003-07-01 07:02:21 51°12.33 2°48.11 240.3 14.6 237 10.9
2003-07-01 07:02:27 51°12.31 2°48.08 240.3 14.7 238 10.9
2003-07-01 07:02:33 51°12.3 2°48.05 240.1 14.8 238 11
2003-07-01 07:02:37 51°12.29 2°48.02 240.4 14.8 238 10.9
2003-07-01 07:02:41 51°12.28 2°48 241 14.8 238 11
2003-07-01 07:02:47 51°12.27 2°47.97 241.7 14.8 239 10.9
2003-07-01 07:02:53 51°12.26 2°47.93 241.8 14.9 239 11
2003-07-01 07:02:57 51°12.25 2°47.91 241.7 14.9 239 11
2003-07-01 07:03:01 51°12.24 2°47.89 241.7 14.9 239 11
2003-07-01 07:03:07 51°12.23 2°47.86 241.9 14.9 240 11
2003-07-01 07:03:13 51°12.21 2°47.82 242.3 14.9 239 11
2003-07-01 07:03:17 51°12.21 2°47.8 242.4 14.9 240 11.1
2003-07-01 07:03:21 51°12.2 2°47.78 242.4 14.9 240 11
2003-07-01 07:03:27 51°12.18 2°47.74 242.2 14.9 240 11
2003-07-01 07:03:33 51°12.17 2°47.71 242 14.9 239 11
2003-07-01 07:03:37 51°12.16 2°47.69 241.6 14.8 239 10.8
2003-07-01 07:03:41 51°12.16 2°47.66 241.6 14.9 240 11
2003-07-01 07:03:47 51°12.14 2°47.63 241.6 14.9 239 11
2003-07-01 07:03:53 51°12.13 2°47.6 241.8 14.9 240 11
2003-07-01 07:03:57 51°12.12 2°47.57 241.7 14.8 239 11.1
2003-07-01 07:04:01 51°12.11 2°47.55 241.6 14.9 239 11
2003-07-01 07:04:07 51°12.1 2°47.52 242.1 14.9 239 11
2003-07-01 07:04:13 51°12.09 2°47.48 241.8 14.8 239 11
2003-07-01 07:04:17 51°12.08 2°47.46 241.6 14.9 239 11.1
2003-07-01 07:04:21 51°12.07 2°47.44 241.8 14.9 239 11
2003-07-01 07:04:27 51°12.06 2°47.4 242.3 14.9 240 11
2003-07-01 07:04:33 51°12.05 2°47.37 242.3 14.8 239 11.1
2003-07-01 07:04:37 51°12.04 2°47.35 241.7 14.8 239 11.1
2003-07-01 07:04:41 51°12.03 2°47.32 242 14.9 239 11
2003-07-01 07:04:47 51°12.02 2°47.29 242.2 14.9 240 11
2003-07-01 07:04:53 51°12.01 2°47.26 241.7 14.8 239 11
2003-07-01 07:04:57 51°12 2°47.23 241.8 14.9 239 11
2003-07-01 07:05:01 51°11.99 2°47.21 242 14.9 239 11
2003-07-01 07:05:07 51°11.98 2°47.18 242.2 14.9 240 10.9
2003-07-01 07:05:13 51°11.96 2°47.14 242.4 14.9 240 10.9
2003-07-01 07:05:17 51°11.96 2°47.12 242.5 14.8 240 10.9
2003-07-01 07:05:21 51°11.95 2°47.1 242.4 14.8 240 10.9
2003-07-01 07:05:27 51°11.93 2°47.06 242.4 14.9 240 10.8
2003-07-01 07:05:31 51°11.93 2°47.04 242.3 14.9 240 10.8
2003-07-01 07:05:37 51°11.91 2°47.01 242.1 14.9 240 10.8
2003-07-01 07:05:41 51°11.91 2°46.98 242 14.9 239 10.9
2003-07-01 07:05:47 51°11.89 2°46.95 242.1 14.9 240 10.8
2003-07-01 07:05:53 51°11.88 2°46.92 242 14.9 239 10.8
2003-07-01 07:05:57 51°11.87 2°46.89 242 15 239 10.8
2003-07-01 07:06:01 51°11.86 2°46.87 242.2 14.9 240 10.8
2003-07-01 07:06:07 51°11.85 2°46.84 242 14.9 240 10.7
2003-07-01 07:06:13 51°11.84 2°46.8 242.1 14.9 240 10.7
2003-07-01 07:06:17 51°11.83 2°46.78 241.7 14.9 239 10.7
2003-07-01 07:06:21 51°11.82 2°46.76 242.1 14.9 240 10.7
2003-07-01 07:06:27 51°11.81 2°46.72 242.4 14.9 240 10.7
2003-07-01 07:06:33 51°11.8 2°46.69 242.4 14.9 240 10.7
2003-07-01 07:06:37 51°11.79 2°46.67 242.6 14.9 240 10.7
2003-07-01 07:06:41 51°11.78 2°46.64 242.4 14.9 240 10.8
2003-07-01 07:06:47 51°11.77 2°46.61 242.9 14.9 241 10.7
2003-07-01 07:06:53 51°11.75 2°46.57 242.5 14.9 240 10.8
2003-07-01 07:06:57 51°11.75 2°46.55 242.4 14.9 240 10.7
2003-07-01 07:07:01 51°11.74 2°46.53 242 14.9 239 10.8
2003-07-01 07:07:07 51°11.73 2°46.49 242.2 14.9 240 10.7
2003-07-01 07:07:13 51°11.71 2°46.46 242.1 14.9 239 10.8
2003-07-01 07:07:17 51°11.7 2°46.44 241.9 14.9 240 10.8
2003-07-01 07:07:21 51°11.7 2°46.42 242 14.9 239 10.6
2003-07-01 07:07:27 51°11.68 2°46.38 242.1 14.9 240 10.6
2003-07-01 07:07:33 51°11.67 2°46.35 242.3 14.9 240 10.6
2003-07-01 07:07:37 51°11.66 2°46.32 242.2 14.8 240 10.6
2003-07-01 07:07:41 51°11.65 2°46.3 242 14.9 240 10.5
2003-07-01 07:07:47 51°11.64 2°46.27 241.9 14.9 239 10.5
2003-07-01 07:07:53 51°11.63 2°46.23 242 14.8 240 10.6
2003-07-01 07:07:57 51°11.62 2°46.21 242.1 14.8 239 10.5
2003-07-01 07:08:01 51°11.61 2°46.19 241.8 14.9 239 10.5
2003-07-01 07:08:07 51°11.6 2°46.15 242.2 14.8 240 10.5
2003-07-01 07:08:13 51°11.59 2°46.12 241.9 14.8 239 10.4
2003-07-01 07:08:17 51°11.58 2°46.1 242 14.9 240 10.4
2003-07-01 07:08:21 51°11.57 2°46.08 242.4 14.9 240 10.4
2003-07-01 07:08:27 51°11.56 2°46.04 242.4 14.9 240 10.3
2003-07-01 07:08:33 51°11.55 2°46.01 242.6 14.8 240 10.3
2003-07-01 07:08:37 51°11.54 2°45.98 242.4 14.8 240 10.3
2003-07-01 07:08:41 51°11.53 2°45.96 242.3 14.9 240 10.2
2003-07-01 07:08:47 51°11.52 2°45.93 242.5 14.9 240 10.1
2003-07-01 07:08:53 51°11.5 2°45.89 242.5 14.8 239 10.1
2003-07-01 07:08:57 51°11.5 2°45.87 242 14.8 240 10.1
2003-07-01 07:09:01 51°11.49 2°45.85 242.4 14.8 240 10.1
2003-07-01 07:09:07 51°11.47 2°45.81 242.4 14.9 240 10
2003-07-01 07:09:13 51°11.46 2°45.78 242.4 14.9 240 10
2003-07-01 07:09:17 51°11.45 2°45.76 242.4 14.9 240 10.1
2003-07-01 07:09:21 51°11.45 2°45.73 242.4 14.9 240 10
2003-07-01 07:09:27 51°11.43 2°45.7 242.5 14.8 240 10
2003-07-01 07:09:31 51°11.43 2°45.68 242.9 14.8 240 9.9
2003-07-01 07:09:37 51°11.41 2°45.64 242.5 14.8 240 9.9
2003-07-01 07:09:41 51°11.4 2°45.62 242.6 14.9 240 9.9
2003-07-01 07:09:47 51°11.39 2°45.59 242.7 14.8 240 9.8
2003-07-01 07:09:53 51°11.38 2°45.55 242 14.8 239 9.8
2003-07-01 07:09:57 51°11.37 2°45.53 242.1 14.9 240 9.8
2003-07-01 07:10:01 51°11.36 2°45.51 242.2 14.8 240 9.8
2003-07-01 07:10:07 51°11.35 2°45.47 241.7 14.8 239 9.7
2003-07-01 07:10:13 51°11.34 2°45.44 241.7 14.9 240 9.7
2003-07-01 07:10:17 51°11.33 2°45.42 242.3 14.9 240 9.7
2003-07-01 07:10:21 51°11.32 2°45.4 242.5 14.8 240 9.7
2003-07-01 07:10:27 51°11.31 2°45.36 242.9 14.8 240 9.6
2003-07-01 07:10:33 51°11.3 2°45.33 242.9 14.8 240 9.6
2003-07-01 07:10:37 51°11.29 2°45.3 242.5 14.9 239 9.5
2003-07-01 07:10:41 51°11.28 2°45.28 242.6 14.8 240 9.5
2003-07-01 07:10:47 51°11.27 2°45.25 242.1 14.7 239 9.5
2003-07-01 07:10:53 51°11.26 2°45.21 241.8 14.8 240 9.4
2003-07-01 07:10:57 51°11.25 2°45.19 242 14.7 239 9.3
2003-07-01 07:11:01 51°11.24 2°45.17 242.1 14.7 239 9.3
2003-07-01 07:11:07 51°11.23 2°45.14 242 14.7 239 9.2
2003-07-01 07:11:13 51°11.21 2°45.1 242.1 14 239 9.3
2003-07-01 07:11:17 51°11.21 2°45.08 242 13.3 240 9.1
2003-07-01 07:11:21 51°11.2 2°45.06 242.5 12.9 240 9.2
2003-07-01 07:11:27 51°11.19 2°45.04 243.4 12.2 241 9.2
2003-07-01 07:11:33 51°11.18 2°45.01 244.7 11 243 9.4
2003-07-01 07:11:37 51°11.18 2°44.99 246.7 10.3 245 9.5
2003-07-01 07:11:41 51°11.17 2°44.98 249.4 9.5 245 9.5
2003-07-01 07:11:47 51°11.17 2°44.96 250.1 8.4 246 9.5
2003-07-01 07:11:53 51°11.16 2°44.94 248.9 7.2 244 9.5
2003-07-01 07:11:57 51°11.16 2°44.93 245.5 6.8 242 9.5
2003-07-01 07:12:01 51°11.15 2°44.92 240.9 6.4 238 9.4
2003-07-01 07:12:07 51°11.15 2°44.91 236.1 5.9 236 9.4
2003-07-01 07:12:13 51°11.14 2°44.9 233.1 5.4 232 9.4
2003-07-01 07:12:17 51°11.14 2°44.89 230 5.1 232 9.5
2003-07-01 07:12:21 51°11.14 2°44.88 226.6 4.8 229 9.4
2003-07-01 07:12:27 51°11.13 2°44.87 223.5 4.2 228 9.4
2003-07-01 07:12:31 51°11.13 2°44.87 220 3.6 225 9.3
2003-07-01 07:12:37 51°11.12 2°44.86 215.7 3.3 223 9.3
2003-07-01 07:12:41 51°11.12 2°44.86 211.4 3 221 9.3
2003-07-01 07:12:47 51°11.12 2°44.86 207.2 2.6 219 9.3
2003-07-01 07:12:53 51°11.12 2°44.85 203.3 2.3 218 9.2
2003-07-01 07:12:57 51°11.11 2°44.85 199.5 2.3 217 9.2
2003-07-01 07:13:01 51°11.11 2°44.85 196.1 2.1 214 9.2
2003-07-01 07:13:07 51°11.11 2°44.84 193.1 2.1 213 9.2
2003-07-01 07:13:13 51°11.11 2°44.84 190.5 2 210 9.2
2003-07-01 07:13:17 51°11.1 2°44.84 188.3 2 211 9.1
2003-07-01 07:13:21 51°11.1 2°44.84 186.5 1.9 209 9.2
2003-07-01 07:13:27 51°11.1 2°44.84 185 1.9 209 9.1
2003-07-01 07:13:33 51°11.1 2°44.83 183.6 1.8 209 9.1
2003-07-01 07:13:37 51°11.1 2°44.83 182.1 1.7 206 9.2
2003-07-01 07:13:41 51°11.09 2°44.83 180.9 1.7 206 9.1
2003-07-01 07:13:47 51°11.09 2°44.83 179.7 1.6 204 9.1
2003-07-01 07:13:53 51°11.09 2°44.83 178.6 1.6 204 9.1
2003-07-01 07:13:57 51°11.09 2°44.83 177.8 1.6 204 9.1
2003-07-01 07:14:01 51°11.09 2°44.83 176.8 1.5 201 9.1
2003-07-01 07:14:07 51°11.08 2°44.82 175.6 1.5 204 9
2003-07-01 07:14:13 51°11.08 2°44.82 174.9 1.4 199 9
2003-07-01 07:14:17 51°11.08 2°44.82 174.2 1.5 203 9
2003-07-01 07:14:21 51°11.08 2°44.82 173.4 1.4 200 9
2003-07-01 07:14:27 51°11.08 2°44.82 172.7 1.4 202 9
2003-07-01 07:14:33 51°11.07 2°44.82 172.1 1.3 200 8.9
2003-07-01 07:14:37 51°11.07 2°44.82 171.5 1.3 200 8.9
2003-07-01 07:14:41 51°11.07 2°44.82 170.9 1.3 200 8.9
2003-07-01 07:14:47 51°11.07 2°44.82 170.5 1.3 201 9
2003-07-01 07:14:53 51°11.07 2°44.82 170.1 1.3 202 8.9
2003-07-01 07:14:57 51°11.07 2°44.81 169.8 1.2 200 8.9
2003-07-01 07:15:01 51°11.06 2°44.81 169.5 1.2 201 8.8
2003-07-01 07:15:07 51°11.06 2°44.81 169.2 1.4 210 8.8
2003-07-01 07:15:13 51°11.06 2°44.81 169.1 1.1 195 8.8
2003-07-01 07:15:17 51°11.06 2°44.81 168.7 1.2 204 8.8
2003-07-01 07:15:21 51°11.06 2°44.81 168.6 1.2 204 8.8
2003-07-01 07:15:27 51°11.06 2°44.81 168.3 1.1 204 8.8
2003-07-01 07:15:33 51°11.06 2°44.81 168.3 1 199 8.8
2003-07-01 07:15:37 51°11.05 2°44.81 168.1 1.1 206 8.8
2003-07-01 07:15:41 51°11.05 2°44.81 167.9 1.1 203 8.8
2003-07-01 07:15:47 51°11.05 2°44.8 167.3 1.1 201 8.8
2003-07-01 07:15:53 51°11.05 2°44.8 166.4 1.2 194 8.7
2003-07-01 07:15:57 51°11.05 2°44.8 164.7 1.3 191 8.7
2003-07-01 07:16:01 51°11.05 2°44.8 162.5 1.4 185 8.7
2003-07-01 07:16:07 51°11.04 2°44.8 159.7 1.6 182 8.8
2003-07-01 07:16:13 51°11.04 2°44.8 155.9 1.7 174 8.7
2003-07-01 07:16:17 51°11.04 2°44.8 151.6 1.8 173 8.7
2003-07-01 07:16:21 51°11.04 2°44.8 147.1 1.9 166 8.7
2003-07-01 07:16:27 51°11.03 2°44.81 142.1 1.9 161 8.7
2003-07-01 07:16:33 51°11.03 2°44.81 137.1 2 153 8.6
2003-07-01 07:16:37 51°11.03 2°44.81 132.1 2.1 148 8.6
2003-07-01 07:16:41 51°11.03 2°44.81 127.3 2.1 144 8.5
2003-07-01 07:16:47 51°11.02 2°44.82 122 2.1 134 8.6
2003-07-01 07:16:53 51°11.02 2°44.82 116.8 2.1 129 8.5
2003-07-01 07:16:57 51°11.02 2°44.82 111.6 2.1 124 8.5
2003-07-01 07:17:01 51°11.02 2°44.83 106.6 2.1 118 8.5
2003-07-01 07:17:07 51°11.02 2°44.83 101 2.1 109 8.4
2003-07-01 07:17:13 51°11.02 2°44.84 96 2.1 103 8.4
2003-07-01 07:17:17 51°11.02 2°44.84 90.7 2.1 95 8.4
2003-07-01 07:17:21 51°11.02 2°44.85 85.6 2.1 90 8.4
2003-07-01 07:17:27 51°11.02 2°44.85 80.7 2.1 80 8.4
2003-07-01 07:17:33 51°11.02 2°44.86 75.5 2.2 72 8.4
2003-07-01 07:17:37 51°11.02 2°44.86 70.4 2.2 68 8.4
2003-07-01 07:17:41 51°11.02 2°44.86 65.5 2.2 61 8.4
2003-07-01 07:17:47 51°11.02 2°44.87 60.4 2.3 53 8.4
2003-07-01 07:17:53 51°11.03 2°44.87 55.2 2.3 47 8.5
2003-07-01 07:17:57 51°11.03 2°44.88 50.3 2.4 39 8.4
2003-07-01 07:18:01 51°11.03 2°44.88 45.7 2.5 32 8.4
2003-07-01 07:18:07 51°11.04 2°44.88 41.7 2.6 29 8.5
2003-07-01 07:18:13 51°11.04 2°44.88 38.9 2.8 25 8.5
2003-07-01 07:18:17 51°11.04 2°44.89 36.8 2.9 24 8.4
2003-07-01 07:18:21 51°11.05 2°44.89 35.3 3 23 8.6
2003-07-01 07:18:27 51°11.05 2°44.89 34.1 3.1 21 8.6
2003-07-01 07:18:33 51°11.06 2°44.89 33.5 3.2 19 8.6
2003-07-01 07:18:37 51°11.06 2°44.9 33.1 3.3 20 8.6
2003-07-01 07:18:41 51°11.06 2°44.9 32.8 3.4 20 8.7
2003-07-01 07:18:47 51°11.07 2°44.9 32.6 3.5 20 8.7
2003-07-01 07:18:53 51°11.07 2°44.9 32.3 3.6 20 8.7
2003-07-01 07:18:57 51°11.08 2°44.91 32.3 3.6 20 8.7
2003-07-01 07:19:01 51°11.08 2°44.91 32.1 3.7 19 8.8
2003-07-01 07:19:07 51°11.09 2°44.91 31.9 3.8 19 8.9
2003-07-01 07:19:13 51°11.09 2°44.92 31.5 3.8 19 8.9
2003-07-01 07:19:17 51°11.1 2°44.92 31.5 3.9 18 9
2003-07-01 07:19:21 51°11.1 2°44.92 31.3 4 18 9
2003-07-01 07:19:27 51°11.11 2°44.92 31.1 4 18 9
2003-07-01 07:19:33 51°11.12 2°44.93 31 4 19 9
2003-07-01 07:19:37 51°11.12 2°44.93 31 4.1 18 9.1
2003-07-01 07:19:41 51°11.12 2°44.93 32.3 4.1 21 9.1
2003-07-01 07:19:47 51°11.13 2°44.94 35.4 4 22 9.1
2003-07-01 07:19:53 51°11.14 2°44.94 39.9 4 28 9.1
2003-07-01 07:19:57 51°11.14 2°44.94 43.7 3.9 31 9.2
2003-07-01 07:20:01 51°11.14 2°44.95 45.9 3.7 34 9.3
2003-07-01 07:20:07 51°11.15 2°44.95 47.1 3.6 34 9.4
2003-07-01 07:20:13 51°11.15 2°44.96 48 3.5 37 9.4
2003-07-01 07:20:17 51°11.16 2°44.96 48.6 3.4 36 9.3
2003-07-01 07:20:21 51°11.16 2°44.97 48.9 3.3 37 9.4
2003-07-01 07:20:27 51°11.16 2°44.97 49.1 3.2 38 9.4
2003-07-01 07:20:33 51°11.17 2°44.98 49.3 3.1 37 9.4
2003-07-01 07:20:37 51°11.17 2°44.98 49.4 3 38 9.5
2003-07-01 07:20:41 51°11.17 2°44.98 49.5 3 37 9.5
2003-07-01 07:20:47 51°11.18 2°44.99 49.5 2.8 39 9.4
2003-07-01 07:20:53 51°11.18 2°44.99 49.5 2.8 37 9.4
2003-07-01 07:20:57 51°11.18 2°44.99 49.3 2.7 37 9.5
2003-07-01 07:21:01 51°11.18 2°45 49.3 2.7 37 9.5
2003-07-01 07:21:07 51°11.19 2°45 49.3 2.6 36 9.5
2003-07-01 07:21:13 51°11.19 2°45.01 49.3 2.6 37 9.5
2003-07-01 07:21:17 51°11.19 2°45.01 49.1 2.6 36 9.6
2003-07-01 07:21:21 51°11.2 2°45.01 49 2.4 35 9.6
2003-07-01 07:21:27 51°11.2 2°45.01 49 2.3 35 9.6
2003-07-01 07:21:33 51°11.2 2°45.02 48.8 2.3 34 9.6
2003-07-01 07:21:37 51°11.2 2°45.02 48.7 2.2 35 9.7
2003-07-01 07:21:41 51°11.21 2°45.02 48.8 2.2 34 9.7
2003-07-01 07:21:47 51°11.21 2°45.02 48.7 2.1 34 9.7
2003-07-01 07:21:53 51°11.21 2°45.03 48.6 2 33 9.7
2003-07-01 07:21:57 51°11.21 2°45.03 48.4 2 32 9.8
2003-07-01 07:22:01 51°11.21 2°45.03 48.2 1.9 31 9.8
2003-07-01 07:22:07 51°11.22 2°45.03 47.9 1.9 31 9.8
2003-07-01 07:22:13 51°11.22 2°45.04 47.6 1.8 31 9.8
2003-07-01 07:22:17 51°11.22 2°45.04 47.4 1.8 28 9.8
2003-07-01 07:22:21 51°11.22 2°45.04 47.1 1.7 29 9.8
2003-07-01 07:22:27 51°11.23 2°45.04 46.9 1.7 26 9.8
2003-07-01 07:22:33 51°11.23 2°45.04 46.5 1.6 29 9.8
2003-07-01 07:22:37 51°11.23 2°45.04 46.4 1.6 27 9.8
2003-07-01 07:22:41 51°11.23 2°45.05 46.1 1.5 26 9.9
2003-07-01 07:22:47 51°11.23 2°45.05 45.9 1.5 27 9.9
2003-07-01 07:22:53 51°11.24 2°45.05 45.8 1.5 24 9.9
2003-07-01 07:22:57 51°11.24 2°45.05 45.6 1.5 23 10
2003-07-01 07:23:01 51°11.24 2°45.05 45.1 1.4 22 10
2003-07-01 07:23:07 51°11.24 2°45.05 44.9 1.4 23 9.9
2003-07-01 07:23:13 51°11.24 2°45.05 44.5 1.4 21 9.9
2003-07-01 07:23:17 51°11.24 2°45.05 44.2 1.4 20 10
2003-07-01 07:23:21 51°11.25 2°45.06 44.1 1.4 23 10
2003-07-01 07:23:27 51°11.25 2°45.06 44.6 1.4 22 10
2003-07-01 07:23:33 51°11.25 2°45.06 46.4 1.4 29 10
2003-07-01 07:23:37 51°11.25 2°45.06 49.2 1.5 30 10
2003-07-01 07:23:41 51°11.25 2°45.06 52.7 1.5 38 10
2003-07-01 07:23:47 51°11.25 2°45.06 56.6 1.5 43 10
2003-07-01 07:23:53 51°11.26 2°45.07 60.3 1.4 50 10
2003-07-01 07:23:57 51°11.26 2°45.07 64.4 1.4 56 10
2003-07-01 07:24:01 51°11.26 2°45.07 67.5 1.4 62 10.1
2003-07-01 07:24:07 51°11.26 2°45.08 72.5 1.4 68 10
2003-07-01 07:24:13 51°11.26 2°45.08 76.7 1.4 77 10
2003-07-01 07:24:17 51°11.26 2°45.08 80.7 1.4 82 10
2003-07-01 07:24:21 51°11.26 2°45.08 84.8 1.4 88 10
2003-07-01 07:24:27 51°11.26 2°45.09 88.8 1.5 95 10
2003-07-01 07:24:33 51°11.26 2°45.09 92.2 1.5 102 10
2003-07-01 07:24:37 51°11.26 2°45.09 96.2 1.5 108 10
2003-07-01 07:24:41 51°11.26 2°45.1 101 1.6 113 10
2003-07-01 07:24:47 51°11.26 2°45.1 104.9 1.6 119 9.9
2003-07-01 07:24:53 51°11.25 2°45.1 108.8 1.7 126 9.9
2003-07-01 07:24:57 51°11.25 2°45.11 112.5 1.7 131 9.9
2003-07-01 07:25:01 51°11.25 2°45.11 116.6 1.8 137 9.9
2003-07-01 07:25:07 51°11.25 2°45.11 120.3 1.8 140 9.9
2003-07-01 07:25:13 51°11.25 2°45.11 124 1.9 145 9.9
2003-07-01 07:25:17 51°11.24 2°45.12 127.5 1.9 148 9.8
2003-07-01 07:25:21 51°11.24 2°45.12 130.9 1.9 151 9.9
2003-07-01 07:25:27 51°11.24 2°45.12 134.5 2 156 9.8
2003-07-01 07:25:33 51°11.24 2°45.12 137.9 2 158 9.7
2003-07-01 07:25:37 51°11.23 2°45.12 141.2 2.1 161 9.7
2003-07-01 07:25:41 51°11.23 2°45.12 144.5 2.1 164 9.7
2003-07-01 07:25:47 51°11.23 2°45.13 147.8 2.2 168 9.6
2003-07-01 07:25:53 51°11.22 2°45.13 151 2.2 171 9.6
2003-07-01 07:25:57 51°11.22 2°45.13 154.1 2.3 173 9.6
2003-07-01 07:26:01 51°11.22 2°45.13 156.6 2.3 175 9.6
2003-07-01 07:26:07 51°11.22 2°45.13 160.4 2.4 179 9.5
2003-07-01 07:26:13 51°11.21 2°45.13 163.6 2.4 182 9.5
2003-07-01 07:26:17 51°11.21 2°45.13 166 2.5 183 9.5
2003-07-01 07:26:21 51°11.21 2°45.13 169.1 2.5 186 9.5
2003-07-01 07:26:27 51°11.2 2°45.13 172.8 2.5 188 9.4
2003-07-01 07:26:33 51°11.2 2°45.12 175.2 2.6 191 9.4
2003-07-01 07:26:37 51°11.2 2°45.12 178.8 2.6 193 9.3
2003-07-01 07:26:41 51°11.19 2°45.12 181.3 2.7 197 9.3
2003-07-01 07:26:47 51°11.19 2°45.12 184.7 2.7 199 9.2
2003-07-01 07:26:53 51°11.18 2°45.12 187.7 2.8 201 9.2
2003-07-01 07:26:57 51°11.18 2°45.11 190.1 2.8 204 9.2
2003-07-01 07:27:01 51°11.18 2°45.11 193 2.9 206 9.2
2003-07-01 07:27:07 51°11.17 2°45.11 197.3 2.9 208 9.2
2003-07-01 07:27:13 51°11.17 2°45.1 200.5 3 212 9.1
2003-07-01 07:27:17 51°11.17 2°45.1 203.2 3 213 9.1
2003-07-01 07:27:21 51°11.16 2°45.1 206.4 3 214 9.1
2003-07-01 07:27:27 51°11.16 2°45.09 209.7 3 217 9
2003-07-01 07:27:33 51°11.16 2°45.09 212.7 3.1 220 8.9
2003-07-01 07:27:37 51°11.15 2°45.09 216.2 3.1 221 8.9
2003-07-01 07:27:41 51°11.15 2°45.08 219.6 3.1 224 9
2003-07-01 07:27:47 51°11.15 2°45.08 223.5 3.2 227 9
2003-07-01 07:27:53 51°11.14 2°45.07 226.4 3.2 229 9
2003-07-01 07:27:57 51°11.14 2°45.06 230.6 3.2 233 9.1
2003-07-01 07:28:01 51°11.14 2°45.06 233.5 3.2 233 9
2003-07-01 07:28:07 51°11.14 2°45.05 237.1 3.2 237 9
2003-07-01 07:28:13 51°11.13 2°45.05 240.5 3.2 240 9
2003-07-01 07:28:17 51°11.13 2°45.04 244.8 3.2 243 9
2003-07-01 07:28:21 51°11.13 2°45.03 247.8 3.2 245 9
2003-07-01 07:28:27 51°11.13 2°45.03 252.2 3.2 247 9
2003-07-01 07:28:33 51°11.13 2°45.02 255.3 3.3 251 9
2003-07-01 07:28:37 51°11.13 2°45.01 259.2 3.3 253 9.1
2003-07-01 07:28:41 51°11.12 2°45.01 263 3.3 256 9
2003-07-01 07:28:47 51°11.12 2°45 266.6 3.3 258 9
2003-07-01 07:28:53 51°11.12 2°44.99 270 3.3 262 9
2003-07-01 07:28:57 51°11.12 2°44.98 273.3 3.3 263 9
2003-07-01 07:29:01 51°11.12 2°44.98 276.5 3.4 265 9
2003-07-01 07:29:07 51°11.12 2°44.97 279.4 3.4 269 9.1
2003-07-01 07:29:13 51°11.12 2°44.96 282.1 3.4 270 9
2003-07-01 07:29:17 51°11.12 2°44.95 284.7 3.4 272 9.1
2003-07-01 07:29:21 51°11.12 2°44.95 286.8 3.4 273 9.1
2003-07-01 07:29:27 51°11.12 2°44.94 289 3.5 275 9.1
2003-07-01 07:29:33 51°11.12 2°44.93 290.3 3.5 276 9.1
2003-07-01 07:29:37 51°11.12 2°44.92 291.6 3.5 277 9.2
2003-07-01 07:29:41 51°11.12 2°44.92 292.5 3.6 278 9.2
2003-07-01 07:29:47 51°11.12 2°44.91 293.3 3.6 280 9.2
2003-07-01 07:29:53 51°11.13 2°44.9 293.9 3.7 280 9.2
2003-07-01 07:29:57 51°11.13 2°44.89 294.4 3.7 281 9.2
2003-07-01 07:30:01 51°11.13 2°44.89 294.9 3.7 281 9.2
2003-07-01 07:30:07 51°11.13 2°44.88 295.2 3.7 282 9.4
2003-07-01 07:30:13 51°11.13 2°44.87 295.4 3.8 282 9.3
2003-07-01 07:30:17 51°11.13 2°44.86 295.4 3.8 282 9.4
2003-07-01 07:30:21 51°11.13 2°44.86 295.4 3.9 282 9.4
2003-07-01 07:30:27 51°11.13 2°44.85 295.1 3.9 282 9.5
2003-07-01 07:30:33 51°11.14 2°44.84 294.6 3.9 282 9.4
2003-07-01 07:30:37 51°11.14 2°44.83 294.2 4 281 9.5
2003-07-01 07:30:41 51°11.14 2°44.82 293.8 4 281 9.5
2003-07-01 07:30:47 51°11.14 2°44.81 293.2 4 280 9.6
2003-07-01 07:30:53 51°11.14 2°44.8 292.5 4 280 9.6
2003-07-01 07:30:57 51°11.14 2°44.79 292.1 4 280 9.6
2003-07-01 07:31:01 51°11.14 2°44.79 291.7 4.1 280 9.6
2003-07-01 07:31:07 51°11.14 2°44.77 291.3 4.1 279 9.6
2003-07-01 07:31:13 51°11.14 2°44.76 290.9 4.1 279 9.7
2003-07-01 07:31:17 51°11.14 2°44.76 290.6 4.1 279 9.7
2003-07-01 07:31:21 51°11.14 2°44.75 290.4 4.1 279 9.7
2003-07-01 07:31:27 51°11.15 2°44.74 290.2 4.2 278 9.8
2003-07-01 07:31:33 51°11.15 2°44.73 289.9 4.2 279 9.8
2003-07-01 07:31:37 51°11.15 2°44.72 289.5 4.2 278 9.8
2003-07-01 07:31:41 51°11.15 2°44.71 288.5 4.2 277 9.9
2003-07-01 07:31:47 51°11.15 2°44.7 287.6 4.2 276 9.9
2003-07-01 07:31:53 51°11.15 2°44.69 286.6 4.2 275 10
2003-07-01 07:31:57 51°11.15 2°44.68 285.3 4.2 274 9.9
2003-07-01 07:32:01 51°11.15 2°44.68 283.8 4.2 274 10
2003-07-01 07:32:07 51°11.15 2°44.66 282.6 4.2 273 9.9
2003-07-01 07:32:13 51°11.15 2°44.65 281.4 4.2 272 10
2003-07-01 07:32:17 51°11.15 2°44.65 279.9 4.2 271 10
2003-07-01 07:32:21 51°11.15 2°44.64 278.3 4.2 270 10
2003-07-01 07:32:27 51°11.15 2°44.63 276.7 4.2 269 10
2003-07-01 07:32:33 51°11.15 2°44.62 275 4.2 267 10
2003-07-01 07:32:37 51°11.15 2°44.61 273.6 4.2 266 10.1
2003-07-01 07:32:41 51°11.15 2°44.6 272.1 4.2 266 10.1
2003-07-01 07:32:47 51°11.15 2°44.59 270.5 4.2 264 10.1
2003-07-01 07:32:53 51°11.15 2°44.58 268.7 4.2 263 10.1
2003-07-01 07:32:57 51°11.15 2°44.57 267.3 4.2 262 10.1
2003-07-01 07:33:01 51°11.15 2°44.56 265.9 4.2 261 10.1
2003-07-01 07:33:07 51°11.14 2°44.55 264.6 4.2 260 10.1
2003-07-01 07:33:13 51°11.14 2°44.54 263.2 4.2 259 10.2
2003-07-01 07:33:17 51°11.14 2°44.54 261.9 4.2 258 10.1
2003-07-01 07:33:21 51°11.14 2°44.53 260.5 4.2 256 10.1
2003-07-01 07:33:27 51°11.14 2°44.52 259.1 4.2 255 10.2
2003-07-01 07:33:33 51°11.14 2°44.51 257.9 4.2 255 10.2
2003-07-01 07:33:37 51°11.14 2°44.5 256.9 4.2 254 10.2
2003-07-01 07:33:41 51°11.13 2°44.49 256 4.2 253 10.1
2003-07-01 07:33:47 51°11.13 2°44.48 255.2 4.2 253 10.2
2003-07-01 07:33:53 51°11.13 2°44.47 254.4 4.2 251 10.2
2003-07-01 07:33:57 51°11.13 2°44.46 253.5 4.2 252 10.1
2003-07-01 07:34:01 51°11.13 2°44.46 253.1 4.2 251 10.2
2003-07-01 07:34:07 51°11.13 2°44.45 252.6 4.2 251 10.1
2003-07-01 07:34:13 51°11.12 2°44.44 252.1 4.2 250 10.2
2003-07-01 07:34:17 51°11.12 2°44.43 251.8 4.2 251 10.2
2003-07-01 07:34:21 51°11.12 2°44.42 251.6 4.2 249 10.2
2003-07-01 07:34:27 51°11.12 2°44.41 251.1 4.2 250 10.1
2003-07-01 07:34:33 51°11.12 2°44.4 251 4.2 249 10.2
2003-07-01 07:34:37 51°11.11 2°44.39 250.6 4.3 249 10.1
2003-07-01 07:34:41 51°11.11 2°44.39 250.2 4.3 249 10.2
2003-07-01 07:34:47 51°11.11 2°44.38 249.5 4.3 248 10.1
2003-07-01 07:34:53 51°11.11 2°44.37 248.9 4.3 247 10.2
2003-07-01 07:34:57 51°11.1 2°44.36 248.7 4.3 247 10.2
2003-07-01 07:35:01 51°11.1 2°44.35 249 4.3 248 10.1
2003-07-01 07:35:07 51°11.1 2°44.34 249.8 4.3 247 10.2
2003-07-01 07:35:13 51°11.1 2°44.33 250.8 4.3 249 10.1
2003-07-01 07:35:17 51°11.1 2°44.32 252.2 4.3 250 10.1
2003-07-01 07:35:21 51°11.09 2°44.32 253.5 4.2 251 10.1
2003-07-01 07:35:27 51°11.09 2°44.31 254.7 4.1 252 10.1
2003-07-01 07:35:33 51°11.09 2°44.3 256.1 3.9 252 10.2
2003-07-01 07:35:37 51°11.09 2°44.29 257.2 3.8 254 10.1
2003-07-01 07:35:41 51°11.09 2°44.28 258.4 3.6 254 10.2
2003-07-01 07:35:47 51°11.09 2°44.27 259.3 3.5 255 10.2
2003-07-01 07:35:53 51°11.08 2°44.27 260.2 3.3 255 10.1
2003-07-01 07:35:57 51°11.08 2°44.26 260.8 3.2 256 10.1
2003-07-01 07:36:01 51°11.08 2°44.26 261.1 3.1 256 10.2
2003-07-01 07:36:07 51°11.08 2°44.25 261.2 3 256 10.1
2003-07-01 07:36:13 51°11.08 2°44.24 260.9 2.8 256 10.1
2003-07-01 07:36:17 51°11.08 2°44.24 260.6 2.7 256 10.2
2003-07-01 07:36:21 51°11.08 2°44.23 260.1 2.6 257 10.2
2003-07-01 07:36:27 51°11.08 2°44.22 259.7 2.5 256 10.2
2003-07-01 07:36:33 51°11.08 2°44.22 259.2 2.3 258 10.2
2003-07-01 07:36:37 51°11.08 2°44.22 258.5 2.1 257 10.2
2003-07-01 07:36:41 51°11.08 2°44.21 257.9 2 256 10.2
2003-07-01 07:36:47 51°11.08 2°44.21 257.5 1.9 256 10.2
2003-07-01 07:36:53 51°11.08 2°44.2 257.3 1.7 259 10.3
2003-07-01 07:36:57 51°11.07 2°44.2 257.3 1.6 260 10.3
2003-07-01 07:37:01 51°11.07 2°44.2 257.5 1.5 259 10.2
2003-07-01 07:37:07 51°11.07 2°44.19 258.2 1.5 260 10.3
2003-07-01 07:37:13 51°11.07 2°44.19 259 1.5 260 10.3
2003-07-01 07:37:17 51°11.07 2°44.19 259.8 1.5 259 10.3
2003-07-01 07:37:21 51°11.07 2°44.18 260.7 1.5 261 10.3
2003-07-01 07:37:27 51°11.07 2°44.18 261.7 1.4 259 10.3
2003-07-01 07:37:33 51°11.07 2°44.18 262.7 1.4 258 10.3
2003-07-01 07:37:37 51°11.07 2°44.17 263.8 1.4 260 10.3
2003-07-01 07:37:41 51°11.07 2°44.17 264.8 1.5 259 10.3
2003-07-01 07:37:47 51°11.07 2°44.17 265.7 1.4 261 10.3
2003-07-01 07:37:53 51°11.07 2°44.16 266.9 1.4 260 10.2
2003-07-01 07:37:57 51°11.07 2°44.16 268.1 1.4 261 10.2
2003-07-01 07:38:01 51°11.07 2°44.16 269 1.4 261 10.2
2003-07-01 07:38:07 51°11.07 2°44.16 270 1.4 261 10.3
2003-07-01 07:38:13 51°11.07 2°44.15 270.9 1.4 262 10.3
2003-07-01 07:38:17 51°11.07 2°44.15 271.8 1.3 262 10.4
2003-07-01 07:38:21 51°11.07 2°44.15 272.9 1.3 263 10.3
2003-07-01 07:38:27 51°11.07 2°44.14 273.6 1.3 264 10.4
2003-07-01 07:38:31 51°11.07 2°44.14 274.5 1.3 265 10.4
2003-07-01 07:38:37 51°11.07 2°44.14 275.2 1.3 266 10.3
2003-07-01 07:38:41 51°11.07 2°44.14 275.8 1.3 266 10.3
2003-07-01 07:38:47 51°11.07 2°44.13 276.3 1.4 266 10.3
2003-07-01 07:38:53 51°11.07 2°44.13 276.7 1.4 266 10.4
2003-07-01 07:38:57 51°11.07 2°44.13 277 1.4 266 10.4
2003-07-01 07:39:01 51°11.07 2°44.12 277.2 1.4 267 10.4
2003-07-01 07:39:07 51°11.07 2°44.12 277.2 1.4 265 10.4
2003-07-01 07:39:13 51°11.07 2°44.12 277 1.5 265 10.4
2003-07-01 07:39:17 51°11.07 2°44.11 276.7 1.5 266 10.3
2003-07-01 07:39:21 51°11.07 2°44.11 276.4 1.5 266 10.3
2003-07-01 07:39:27 51°11.07 2°44.11 275.9 1.5 265 10.3
2003-07-01 07:39:33 51°11.07 2°44.1 275.2 1.5 266 10.3
2003-07-01 07:39:37 51°11.07 2°44.1 274.6 1.5 266 10.3
2003-07-01 07:39:41 51°11.07 2°44.1 274.1 1.6 265 10.4
2003-07-01 07:39:47 51°11.07 2°44.09 273.1 1.6 265 10.4
2003-07-01 07:39:53 51°11.07 2°44.09 272.4 1.6 266 10.3
2003-07-01 07:39:57 51°11.07 2°44.09 271.7 1.6 264 10.4
2003-07-01 07:40:01 51°11.07 2°44.08 270.8 1.6 263 10.4
2003-07-01 07:40:07 51°11.07 2°44.08 269.8 1.6 265 10.4
2003-07-01 07:40:13 51°11.07 2°44.07 268.5 1.8 264 10.4
2003-07-01 07:40:17 51°11.07 2°44.07 267 1.9 263 10.4
2003-07-01 07:40:21 51°11.07 2°44.07 265.1 2 261 10.4
2003-07-01 07:40:27 51°11.06 2°44.06 262.6 2.3 259 10.4
2003-07-01 07:40:33 51°11.06 2°44.06 259.1 2.5 256 10.4
2003-07-01 07:40:37 51°11.06 2°44.05 254.7 2.7 254 10.4
2003-07-01 07:40:41 51°11.06 2°44.05 250 2.9 249 10.4
2003-07-01 07:40:47 51°11.06 2°44.04 245.2 3 246 10.4
2003-07-01 07:40:53 51°11.06 2°44.03 239.7 3.2 240 10.4
2003-07-01 07:40:57 51°11.06 2°44.03 234.3 3.2 238 10.4
2003-07-01 07:41:01 51°11.05 2°44.02 229.4 3 236 10.3
2003-07-01 07:41:07 51°11.05 2°44.02 225.8 2.9 233 10.4
2003-07-01 07:41:13 51°11.05 2°44.01 222.9 2.8 231 10.4
2003-07-01 07:41:17 51°11.05 2°44.01 220.5 2.7 231 10.4
2003-07-01 07:41:21 51°11.04 2°44 218.7 2.6 229 10.4
2003-07-01 07:41:27 51°11.04 2°44 217 2.6 229 10.3
2003-07-01 07:41:33 51°11.04 2°43.99 215.5 2.5 229 10.3
2003-07-01 07:41:37 51°11.04 2°43.99 214.2 2.4 227 10.3
2003-07-01 07:41:41 51°11.03 2°43.99 213.1 2.4 228 10.4
2003-07-01 07:41:47 51°11.03 2°43.98 211.6 2.3 226 10.3
2003-07-01 07:41:53 51°11.03 2°43.98 210.4 2.2 225 10.3
2003-07-01 07:41:57 51°11.03 2°43.98 209.1 2.2 226 10.3
2003-07-01 07:42:01 51°11.03 2°43.97 208.1 2.1 223 10.3
2003-07-01 07:42:07 51°11.02 2°43.97 206.1 2 222 10.2
2003-07-01 07:42:13 51°11.02 2°43.97 204.8 2 221 10.2
2003-07-01 07:42:17 51°11.02 2°43.96 203.2 1.9 221 10.2
2003-07-01 07:42:21 51°11.02 2°43.96 201.9 1.8 219 10.3
2003-07-01 07:42:27 51°11.02 2°43.96 200 1.8 219 10.1
2003-07-01 07:42:33 51°11.01 2°43.96 198.6 1.8 219 10.2
2003-07-01 07:42:37 51°11.01 2°43.95 197.1 1.8 217 10.2
2003-07-01 07:42:41 51°11.01 2°43.95 195.9 1.7 217 10.2
2003-07-01 07:42:47 51°11.01 2°43.95 194.3 1.7 217 10.3
2003-07-01 07:42:53 51°11.01 2°43.95 192.7 1.7 214 10.2
2003-07-01 07:42:57 51°11 2°43.94 191.8 1.6 216 10.3
2003-07-01 07:43:01 51°11 2°43.94 190.2 1.6 216 10.2
2003-07-01 07:43:07 51°11 2°43.94 189 1.6 216 10.2
2003-07-01 07:43:13 51°11 2°43.94 187.8 1.5 213 10.2